Flight Track Log - Related Links

Times and Time Zones

All times are in EDT time to prevent confusion due to time zone crossing. See the N1820F flight status page for this flight to view local times or setup timezone preferences in your user account.

Time Position Orientation Groundspeed Altitude Reporting Facility
EDT Latitude Longitude Course Direction KTS MPH feet Rate Location/Type
Fri 08:57:20 AM 41.3500 -73.5167 217° Southwest 111 128 1,700  Level New TRACON
Fri 08:58:14 AM 41.3333 -73.5333 217° Southwest 118 136 2,600 900 Climbing New TRACON
Fri 08:59:20 AM 41.2833 -73.5500 194° South 127 146 3,500 762 Climbing New TRACON
Fri 09:00:20 AM 41.2500 -73.5500 180° South 125 144 4,200 700 Climbing New TRACON
Fri 09:01:20 AM 41.2167 -73.5667 201° Southwest 119 137 4,900 750 Climbing New TRACON
Fri 09:02:20 AM 41.2000 -73.5833 217° Southwest 117 135 5,700 550 Climbing New TRACON
Fri 09:03:20 AM 41.1667 -73.5833 180° South 130 150 6,000 158 Climbing New TRACON
Fri 09:04:14 AM 41.1333 -73.6167 217° Southwest 151 174 6,000  Level New TRACON
Fri 09:05:20 AM 41.0833 -73.6333 194° South 154 177 6,000  Level New TRACON
Fri 09:06:14 AM 41.0500 -73.6500 201° Southwest 151 174 6,000  Level New TRACON
Fri 09:07:09 AM 41.0000 -73.6500 180° South 157 181 6,000  Level New TRACON
Fri 09:08:14 AM 40.9667 -73.6667 201° Southwest 156 180 6,000  Level New TRACON
Fri 09:09:14 AM 40.9167 -73.6833 194° South 157 181 6,000  Level New TRACON
Fri 09:10:08 AM 40.8833 -73.7000 201° Southwest 157 181 6,000  Level New TRACON
Fri 09:11:02 AM 40.8500 -73.7000 180° South 156 180 6,000  Level New TRACON
Fri 09:12:08 AM 40.8000 -73.7167 194° South 156 180 6,000  Level New TRACON
Fri 09:13:08 AM 40.7500 -73.7333 194° South 152 175 6,000  Level New TRACON
Fri 09:14:08 AM 40.7167 -73.7333 180° South 149 171 6,000  Level New TRACON
Fri 09:15:08 AM 40.6833 -73.7500 201° Southwest 149 171 6,000  Level New TRACON
Fri 09:16:02 AM 40.6333 -73.7667 194° South 149 171 6,000  Level New TRACON
Fri 09:17:08 AM 40.6000 -73.8000 217° Southwest 150 173 6,000  Level New TRACON
Fri 09:18:08 AM 40.5667 -73.8167 201° Southwest 147 169 6,000  Level New TRACON
Fri 09:19:14 AM 40.5167 -73.8500 207° Southwest 148 170 6,000  Level New TRACON
Fri 09:20:14 AM 40.4833 -73.8667 201° Southwest 146 168 6,000  Level New TRACON
Fri 09:21:14 AM 40.4500 -73.9000 217° Southwest 146 168 6,000 -9 Level New TRACON
Fri 09:23:00 AM 40.3877 -73.9402 206° Southwest  Level FlightAware
Fri 09:30:00 AM 40.1516 -74.1159 201° Southwest  Level FlightAware
Fri 09:31:00 AM 40.1149 -74.1343 201° Southwest  Level FlightAware
Fri 09:32:00 AM 40.0778 -74.1502 182° South  Level FlightAware
Fri 09:33:00 AM 40.0385 -74.1520 182° South  Level FlightAware
Fri 09:34:00 AM 39.9993 -74.1537 182° South  Level FlightAware
Fri 09:35:00 AM 39.9600 -74.1554 182° South  Level FlightAware
Fri 09:36:00 AM 39.9208 -74.1571 182° South  Level FlightAware
Fri 09:37:00 AM 39.8815 -74.1588 182° South  Level FlightAware
Fri 09:38:00 AM 39.8422 -74.1605 182° South  Level FlightAware
Fri 09:39:00 AM 39.8030 -74.1622 182° South  Level FlightAware
Fri 09:40:00 AM 39.7637 -74.1639 182° South  Level FlightAware
Fri 09:41:00 AM 39.7245 -74.1656 182° South  Level FlightAware
Fri 09:41:38 AM 39.6594 -74.1900 228° Southwest 150 173 5,800  Level Washington Center
Fri 09:42:00 AM 39.6852 -74.1667 180° South  Level FlightAware
Fri 09:43:00 AM 39.6527 -74.1866 228° Southwest  Level FlightAware
Fri 09:43:00 AM 39.6286 -74.2475 235° Southwest  Level FlightAware
Fri 09:44:00 AM 39.6262 -74.2243 228° Southwest  Level FlightAware
Fri 09:45:00 AM 39.5997 -74.2619 228° Southwest  Level FlightAware
Fri 09:45:41 AM 39.5425 -74.3617 229° Southwest 154 177 3,000  Level Washington Center
Fri 09:46:00 AM 39.5731 -74.2995 228° Southwest  Level FlightAware
Fri 09:47:00 AM 39.5466 -74.3371 228° Southwest  Level FlightAware
Fri 09:47:00 AM 39.5065 -74.4102 270° West  Level Estimated
Fri 09:50:00 AM 39.4684 -74.5391 229° Southwest  Level FlightAware
Fri 09:50:29 AM 39.4192 -74.5358 223° Southwest 142 163 3,000  Level Washington Center
Fri 09:52:00 AM 39.4169 -74.6163 237° Southwest  Level FlightAware
Fri 09:54:00 AM 39.3147 -74.6675 191° South  Level Estimated
Fri 09:55:00 AM 39.2856 -74.7019 223° Southwest  Level FlightAware
Fri 09:59:00 AM 39.2167 -74.7833 191° South  Level FlightAware
Fri 10:00:00 AM 39.2191 -74.7947 191° South  Level Estimated

Login

Don't have an account? Register now (free) for customized features, flight alerts, and more!